Time;durP1;ratioP1;P1;durP2;ratioP2;P2;SDS_P1;SDS_P2;PMS_P1;PMS_P2;Temp;Humidity;BMP_temperature;BMP_pressure;BME280_temperature;BME280_humidity;BME280_pressure;Samples;Min_cycle;Max_cycle;Signal;HPM_P1;HPM_P2
2023/04/14 00:00:40;;;;;;;7.07;3.93;;;5.80;99.90;;;;;;5053104;28;20203;-37
2023/04/14 00:03:06;;;;;;;6.87;4.80;;;5.70;99.90;;;;;;5054605;28;20258;-38
2023/04/14 00:05:33;;;;;;;8.83;4.60;;;5.70;99.90;;;;;;5054369;28;20183;-40
2023/04/14 00:08:00;;;;;;;5.30;3.93;;;5.60;99.90;;;;;;5053159;28;20206;-38
2023/04/14 00:10:26;;;;;;;4.97;4.23;;;5.60;99.90;;;;;;5053185;28;20206;-37
2023/04/14 00:12:54;;;;;;;5.90;4.00;;;5.60;99.90;;;;;;5054541;28;20170;-37
2023/04/14 00:15:20;;;;;;;4.80;3.83;;;5.50;99.90;;;;;;5036108;28;20211;-37
2023/04/14 00:17:46;;;;;;;5.13;3.63;;;5.50;99.90;;;;;;5054300;28;20178;-37
2023/04/14 00:20:12;;;;;;;5.07;3.43;;;5.50;99.90;;;;;;5052750;28;20179;-37
2023/04/14 00:22:37;;;;;;;7.43;4.20;;;5.50;99.90;;;;;;5036397;28;20187;-37
2023/04/14 00:25:04;;;;;;;4.43;3.80;;;5.50;99.90;;;;;;5053136;28;20233;-37
2023/04/14 00:27:30;;;;;;;4.67;3.77;;;5.40;99.90;;;;;;5052678;28;20206;-37
2023/04/14 00:29:56;;;;;;;5.60;3.87;;;5.40;99.90;;;;;;5054508;28;20178;-37
2023/04/14 00:32:21;;;;;;;5.23;3.43;;;5.50;99.90;;;;;;5035787;28;20178;-37
2023/04/14 00:34:47;;;;;;;7.80;3.70;;;5.50;99.90;;;;;;5045266;28;20230;-37
2023/04/14 00:37:13;;;;;;;4.57;3.23;;;5.50;99.90;;;;;;5048278;28;20244;-35
2023/04/14 00:39:39;;;;;;;7.63;3.50;;;5.40;99.90;;;;;;5033658;28;20549;-38
2023/04/14 00:42:05;;;;;;;5.20;3.60;;;5.40;99.90;;;;;;5033946;28;20181;-36
2023/04/14 00:44:30;;;;;;;5.83;4.00;;;5.40;99.90;;;;;;5032589;28;20198;-38
2023/04/14 00:46:59;;;;;;;5.70;3.40;;;5.30;99.90;;;;;;5033199;28;20221;-38
2023/04/14 00:49:25;;;;;;;6.37;3.37;;;5.20;99.90;;;;;;5032573;28;20267;-38
2023/04/14 00:51:51;;;;;;;4.87;3.53;;;5.20;99.90;;;;;;5033663;28;20179;-37
2023/04/14 00:54:19;;;;;;;6.13;3.70;;;5.20;99.90;;;;;;5031888;28;20218;-38
2023/04/14 00:56:46;;;;;;;5.70;3.87;;;5.20;99.90;;;;;;5032340;28;20177;-39
2023/04/14 00:59:13;;;;;;;5.60;3.90;;;5.20;99.90;;;;;;5033361;28;20683;-42
2023/04/14 01:01:40;;;;;;;5.90;3.90;;;5.20;99.90;;;;;;5048617;28;20183;-40
2023/04/14 01:04:06;;;;;;;9.00;3.77;;;5.20;99.90;;;;;;5043296;28;20193;-38
2023/04/14 01:06:35;;;;;;;6.73;4.57;;;5.20;99.90;;;;;;5042417;28;20183;-41
2023/04/14 01:09:01;;;;;;;5.67;4.00;;;5.20;99.90;;;;;;5048690;28;20203;-43
2023/04/14 01:11:47;;;;;;;4.77;3.90;;;5.10;99.90;;;;;;5047425;28;20190;-41
2023/04/14 01:14:42;;;;;;;8.23;3.83;;;5.10;99.90;;;;;;5033406;28;20198;-38
2023/04/14 01:17:29;;;;;;;4.60;3.80;;;5.20;99.90;;;;;;5048842;28;20275;-41
2023/04/14 01:20:12;;;;;;;5.10;3.70;;;5.20;99.90;;;;;;5048423;28;20185;-38
2023/04/14 01:22:47;;;;;;;5.23;3.87;;;5.10;99.90;;;;;;5048472;28;20215;-40
2023/04/14 01:25:21;;;;;;;5.40;3.37;;;5.10;99.90;;;;;;5032130;28;20238;-42
2023/04/14 01:28:05;;;;;;;5.73;4.23;;;5.10;99.90;;;;;;5048151;28;20183;-39
2023/04/14 01:30:39;;;;;;;4.70;3.60;;;5.10;99.90;;;;;;5048440;28;20200;-37
2023/04/14 01:33:08;;;;;;;4.43;3.60;;;5.00;99.90;;;;;;5035728;28;20269;-39
2023/04/14 01:35:41;;;;;;;4.93;3.50;;;5.00;99.90;;;;;;5034678;28;20293;-40
2023/04/14 01:38:11;;;;;;;4.90;3.37;;;5.00;99.90;;;;;;5051804;28;20268;-42
2023/04/14 01:40:40;;;;;;;4.40;3.40;;;5.00;99.90;;;;;;5051115;28;20198;-39
2023/04/14 01:43:10;;;;;;;7.27;3.67;;;5.00;99.90;;;;;;5035185;28;20181;-43
2023/04/14 01:45:42;;;;;;;6.70;3.30;;;5.00;99.90;;;;;;5034998;28;20182;-40
2023/04/14 01:48:08;;;;;;;4.87;3.27;;;4.90;99.90;;;;;;5051091;28;20229;-42
2023/04/14 01:50:36;;;;;;;3.60;3.23;;;4.90;99.90;;;;;;5051452;28;20182;-41
2023/04/14 01:53:05;;;;;;;5.67;3.47;;;4.90;99.90;;;;;;5051074;28;20185;-37
2023/04/14 01:55:35;;;;;;;5.23;3.30;;;4.90;99.90;;;;;;5034470;28;20210;-39
2023/04/14 01:58:02;;;;;;;4.87;3.37;;;4.90;99.90;;;;;;5034157;28;20198;-39
2023/04/14 02:00:32;;;;;;;4.70;3.27;;;4.90;99.90;;;;;;5035023;28;20175;-38
2023/04/14 02:03:01;;;;;;;4.20;2.97;;;4.90;99.90;;;;;;5050969;28;20174;-38
2023/04/14 02:05:30;;;;;;;5.40;3.47;;;4.90;99.90;;;;;;5029072;28;20186;-35
2023/04/14 02:07:59;;;;;;;4.83;3.00;;;4.90;99.90;;;;;;5056002;28;20217;-36
2023/04/14 02:10:26;;;;;;;5.03;3.20;;;4.90;99.90;;;;;;5050746;28;20182;-37
2023/04/14 02:12:56;;;;;;;4.80;3.00;;;4.80;99.90;;;;;;5050817;28;20731;-37
2023/04/14 02:15:24;;;;;;;4.70;3.43;;;4.90;99.90;;;;;;5050816;28;20244;-37
2023/04/14 02:17:51;;;;;;;6.40;3.30;;;4.80;99.90;;;;;;5050731;28;20605;-35
2023/04/14 02:20:20;;;;;;;4.13;3.30;;;4.80;99.90;;;;;;5050317;28;20658;-37
2023/04/14 02:22:47;;;;;;;5.57;3.10;;;4.80;99.90;;;;;;5050129;28;20208;-35
2023/04/14 02:25:13;;;;;;;5.57;3.23;;;4.90;99.90;;;;;;5050889;28;20186;-37
2023/04/14 02:27:45;;;;;;;4.03;3.17;;;4.80;99.90;;;;;;5050454;28;20193;-37
2023/04/14 02:30:15;;;;;;;5.90;3.53;;;4.80;99.90;;;;;;5033829;28;20190;-35
2023/04/14 02:32:47;;;;;;;4.97;3.87;;;4.70;99.90;;;;;;5050146;28;20178;-37
2023/04/14 02:35:17;;;;;;;6.13;3.47;;;4.70;99.90;;;;;;5049231;28;20211;-37
2023/04/14 02:37:49;;;;;;;7.50;3.83;;;4.80;99.90;;;;;;5033699;28;20182;-35
2023/04/14 02:40:20;;;;;;;5.33;3.60;;;4.80;99.90;;;;;;5050488;28;20214;-37
2023/04/14 02:42:51;;;;;;;5.80;3.37;;;4.80;99.90;;;;;;5033729;28;20182;-37
2023/04/14 02:45:24;;;;;;;6.67;3.50;;;4.80;99.90;;;;;;5050012;28;20185;-35
2023/04/14 02:47:55;;;;;;;5.93;3.10;;;4.70;99.90;;;;;;5050283;28;20208;-37
2023/04/14 02:50:22;;;;;;;4.40;3.30;;;4.70;99.90;;;;;;5033701;28;20205;-35
2023/04/14 02:53:01;;;;;;;7.00;2.90;;;4.70;99.90;;;;;;5050358;28;20205;-37
2023/04/14 02:55:33;;;;;;;3.17;2.70;;;4.70;99.90;;;;;;5050243;28;20213;-37
2023/04/14 02:57:59;;;;;;;5.77;2.97;;;4.60;99.90;;;;;;5049900;28;20197;-38
2023/04/14 03:00:27;;;;;;;3.23;2.80;;;4.60;99.90;;;;;;5033805;28;20181;-35
2023/04/14 03:02:54;;;;;;;3.83;2.80;;;4.50;99.90;;;;;;5050000;28;20260;-37
2023/04/14 03:05:20;;;;;;;3.63;2.90;;;4.50;99.90;;;;;;5037969;28;20179;-35
2023/04/14 03:07:59;;;;;;;4.10;2.73;;;4.40;99.90;;;;;;5014712;28;20194;-37
2023/04/14 03:10:26;;;;;;;5.10;2.83;;;4.30;99.90;;;;;;5013123;28;20187;-47
2023/04/14 03:12:54;;;;;;;5.60;3.40;;;4.30;99.90;;;;;;5028721;28;20184;-47
2023/04/14 03:15:24;;;;;;;3.10;2.80;;;4.20;99.90;;;;;;5013357;28;20313;-46
2023/04/14 03:17:54;;;;;;;3.43;2.73;;;4.10;99.90;;;;;;5013233;28;20202;-47
2023/04/14 03:20:22;;;;;;;4.63;2.87;;;4.20;99.90;;;;;;5029588;28;20183;-46
2023/04/14 03:23:00;;;;;;;4.73;2.93;;;4.10;99.90;;;;;;5013404;28;20240;-47
2023/04/14 03:25:31;;;;;;;4.93;3.00;;;4.10;99.90;;;;;;5046472;28;20178;-46
2023/04/14 03:28:01;;;;;;;4.93;2.90;;;4.10;99.90;;;;;;5029736;28;20781;-47
2023/04/14 03:30:30;;;;;;;4.70;3.10;;;4.10;99.90;;;;;;5046427;28;20246;-47
2023/04/14 03:33:05;;;;;;;3.53;2.80;;;4.10;99.90;;;;;;5030998;28;20209;-47
2023/04/14 03:35:33;;;;;;;3.33;2.50;;;4.10;99.90;;;;;;5036608;28;20221;-47
2023/04/14 03:38:01;;;;;;;3.60;2.77;;;4.00;99.90;;;;;;5037026;28;20197;-47
2023/04/14 03:40:30;;;;;;;4.17;3.23;;;4.00;99.90;;;;;;5054787;28;20190;-47
2023/04/14 03:42:59;;;;;;;5.83;2.87;;;3.90;99.90;;;;;;5037367;28;20251;-47
2023/04/14 03:45:26;;;;;;;4.43;2.90;;;3.90;99.90;;;;;;5036933;28;20173;-47
2023/04/14 03:47:59;;;;;;;3.83;2.83;;;3.80;99.90;;;;;;5053077;28;20198;-46
2023/04/14 03:50:30;;;;;;;3.27;2.70;;;3.90;99.90;;;;;;5036837;28;20173;-47
2023/04/14 03:53:00;;;;;;;4.93;3.03;;;3.80;99.90;;;;;;5036945;28;20185;-46
2023/04/14 03:55:28;;;;;;;5.07;3.00;;;3.80;99.90;;;;;;5053411;28;20259;-46
2023/04/14 03:58:00;;;;;;;4.23;2.87;;;3.90;99.90;;;;;;5036836;28;20200;-46
2023/04/14 04:00:26;;;;;;;4.57;2.90;;;3.90;99.90;;;;;;5053070;28;20174;-46
2023/04/14 04:02:53;;;;;;;4.63;3.20;;;3.90;99.90;;;;;;5036933;28;20183;-47
2023/04/14 04:05:20;;;;;;;5.47;2.87;;;3.90;99.90;;;;;;5054373;28;20173;-46
2023/04/14 04:07:48;;;;;;;3.27;2.47;;;3.90;99.90;;;;;;5036442;28;20208;-47
2023/04/14 04:10:15;;;;;;;3.60;2.17;;;3.90;99.90;;;;;;5036488;28;20189;-46
2023/04/14 04:12:43;;;;;;;5.33;3.30;;;3.80;99.90;;;;;;5052945;28;20186;-47
2023/04/14 04:15:10;;;;;;;8.33;3.07;;;3.90;99.90;;;;;;5036734;28;20217;-47
2023/04/14 04:17:37;;;;;;;5.63;2.90;;;3.80;99.90;;;;;;5053146;28;20276;-47
2023/04/14 04:20:11;;;;;;;5.47;3.20;;;3.80;99.90;;;;;;5036410;28;20170;-47
2023/04/14 04:22:40;;;;;;;5.57;2.83;;;3.70;99.90;;;;;;5036909;28;20217;-47
2023/04/14 04:25:11;;;;;;;5.27;2.90;;;3.70;99.90;;;;;;5036226;28;20214;-46
2023/04/14 04:27:41;;;;;;;4.87;2.60;;;3.60;99.90;;;;;;5052854;28;20180;-47
2023/04/14 04:30:13;;;;;;;5.60;3.10;;;3.50;99.90;;;;;;5052311;28;20205;-46
2023/04/14 04:32:39;;;;;;;6.57;2.80;;;3.50;99.90;;;;;;5036141;28;20231;-47
2023/04/14 04:35:07;;;;;;;6.23;2.67;;;3.50;99.90;;;;;;5052195;28;20267;-47
2023/04/14 04:37:33;;;;;;;5.10;2.60;;;3.40;99.90;;;;;;5035833;28;20170;-46
2023/04/14 04:40:00;;;;;;;4.43;2.63;;;3.40;99.90;;;;;;5035993;28;20182;-47
2023/04/14 04:42:27;;;;;;;4.40;2.90;;;3.30;99.90;;;;;;5036015;28;20268;-47
2023/04/14 04:44:54;;;;;;;4.50;2.60;;;3.30;99.90;;;;;;5052332;28;20309;-46
2023/04/14 04:47:20;;;;;;;7.70;2.97;;;3.20;99.90;;;;;;5052275;28;20212;-47
2023/04/14 04:49:46;;;;;;;4.73;2.90;;;3.20;99.90;;;;;;5035754;28;20232;-47
2023/04/14 04:52:11;;;;;;;3.23;2.33;;;3.20;99.90;;;;;;5053641;28;20166;-46
2023/04/14 04:54:37;;;;;;;4.60;2.53;;;3.20;99.90;;;;;;5053789;28;20231;-48
2023/04/14 04:57:03;;;;;;;6.90;3.00;;;3.20;99.90;;;;;;5052137;28;20241;-47
2023/04/14 04:59:29;;;;;;;5.77;2.67;;;3.10;99.90;;;;;;5051992;28;20202;-47
2023/04/14 05:01:55;;;;;;;4.63;2.87;;;3.10;99.90;;;;;;5053520;28;20185;-47
2023/04/14 05:04:20;;;;;;;5.03;3.03;;;3.10;99.90;;;;;;5052209;28;20185;-47
2023/04/14 05:06:46;;;;;;;6.73;3.13;;;3.10;99.90;;;;;;5044109;28;20667;-38
2023/04/14 05:09:12;;;;;;;5.23;3.23;;;3.00;99.90;;;;;;5032280;28;20205;-35
2023/04/14 05:11:38;;;;;;;6.50;3.10;;;2.90;99.90;;;;;;5048770;28;20186;-36
2023/04/14 05:14:03;;;;;;;7.20;3.20;;;2.90;99.90;;;;;;5048074;28;20201;-37
2023/04/14 05:16:30;;;;;;;3.77;2.40;;;2.90;99.90;;;;;;5031191;28;20208;-37
2023/04/14 05:18:56;;;;;;;8.37;3.07;;;3.00;99.90;;;;;;5048670;28;20202;-36
2023/04/14 05:21:22;;;;;;;6.37;3.37;;;3.10;99.90;;;;;;5048416;28;20174;-36
2023/04/14 05:23:48;;;;;;;5.00;3.03;;;3.10;99.90;;;;;;5015601;28;20213;-38
2023/04/14 05:26:15;;;;;;;5.57;3.03;;;3.20;99.90;;;;;;5048681;28;20254;-37
2023/04/14 05:28:41;;;;;;;4.80;3.03;;;3.20;99.90;;;;;;5048074;28;20209;-36
2023/04/14 05:31:07;;;;;;;5.10;2.63;;;3.30;99.90;;;;;;5048228;28;20178;-36
2023/04/14 05:33:34;;;;;;;6.83;3.00;;;3.40;99.90;;;;;;5048369;28;20185;-37
2023/04/14 05:36:00;;;;;;;5.80;2.93;;;3.50;99.90;;;;;;5040097;28;20217;-36
2023/04/14 05:38:26;;;;;;;6.03;2.63;;;3.60;99.90;;;;;;5031658;28;20205;-37
2023/04/14 05:40:52;;;;;;;5.53;2.67;;;3.70;99.90;;;;;;5031667;28;20205;-39
2023/04/14 05:43:18;;;;;;;5.30;2.73;;;3.80;99.90;;;;;;5031606;28;20190;-37
2023/04/14 05:45:47;;;;;;;5.27;2.90;;;3.80;99.90;;;;;;5032958;28;20170;-37
2023/04/14 05:48:15;;;;;;;4.50;2.80;;;3.80;99.90;;;;;;5031650;28;20198;-37
2023/04/14 05:50:41;;;;;;;4.87;2.80;;;3.90;99.90;;;;;;5048185;28;20251;-36
2023/04/14 05:53:07;;;;;;;5.07;2.80;;;4.00;99.90;;;;;;5032726;28;20261;-39
2023/04/14 05:55:33;;;;;;;4.33;2.60;;;4.10;99.90;;;;;;5031619;28;20213;-36
2023/04/14 05:57:58;;;;;;;5.27;2.50;;;4.20;99.90;;;;;;5032087;28;20335;-37
2023/04/14 06:00:24;;;;;;;4.97;2.60;;;4.30;99.90;;;;;;5031414;28;20206;-38
2023/04/14 06:02:51;;;;;;;5.93;2.80;;;4.40;99.90;;;;;;5048472;28;20252;-41
2023/04/14 06:05:17;;;;;;;5.53;2.50;;;4.50;99.90;;;;;;5034255;28;20209;-37
2023/04/14 06:07:43;;;;;;;4.87;2.50;;;4.60;99.90;;;;;;5052132;28;20181;-37
2023/04/14 06:10:09;;;;;;;5.23;2.47;;;4.70;99.90;;;;;;5051942;28;20194;-37
2023/04/14 06:12:36;;;;;;;4.77;2.60;;;4.80;99.90;;;;;;5042557;28;20194;-37
2023/04/14 06:15:05;;;;;;;5.93;2.90;;;4.90;99.90;;;;;;5014468;28;20207;-36
2023/04/14 06:17:32;;;;;;;4.90;2.30;;;5.00;99.90;;;;;;5032031;28;20198;-37
2023/04/14 06:19:58;;;;;;;7.70;2.53;;;5.10;99.90;;;;;;5014613;28;20187;-37
2023/04/14 06:22:28;;;;;;;6.37;2.83;;;5.20;99.90;;;;;;5030628;28;20184;-37
2023/04/14 06:24:57;;;;;;;8.73;2.77;;;5.30;99.90;;;;;;5030844;28;20168;-36
2023/04/14 06:27:23;;;;;;;6.27;2.70;;;5.40;99.90;;;;;;5032312;28;20712;-36
2023/04/14 06:29:50;;;;;;;8.20;2.93;;;5.50;99.90;;;;;;5014160;28;20218;-36
2023/04/14 06:32:19;;;;;;;7.10;2.83;;;5.60;99.90;;;;;;5030503;28;20226;-36
2023/04/14 06:34:49;;;;;;;4.47;2.53;;;5.70;99.90;;;;;;5047660;28;20217;-37
2023/04/14 06:37:15;;;;;;;7.23;2.27;;;5.80;99.90;;;;;;5050379;28;20175;-36
2023/04/14 06:39:41;;;;;;;6.07;2.87;;;5.90;99.90;;;;;;5033336;28;20207;-35
2023/04/14 06:42:07;;;;;;;5.43;2.57;;;6.10;99.90;;;;;;5050359;28;20244;-35
2023/04/14 06:44:36;;;;;;;5.53;2.27;;;6.10;99.90;;;;;;5050147;28;20183;-35
2023/04/14 06:47:01;;;;;;;4.70;2.23;;;6.20;99.90;;;;;;5033872;28;20189;-35
2023/04/14 06:49:28;;;;;;;5.90;2.23;;;6.30;99.90;;;;;;5051347;28;20207;-35
2023/04/14 06:51:54;;;;;;;5.97;2.20;;;6.40;99.90;;;;;;5049845;28;20320;-36
2023/04/14 06:54:19;;;;;;;6.43;2.33;;;6.50;99.90;;;;;;5048211;28;20301;-37
2023/04/14 06:56:45;;;;;;;8.43;2.50;;;6.50;99.90;;;;;;5030167;28;20179;-36
2023/04/14 06:59:11;;;;;;;6.13;2.50;;;6.60;99.90;;;;;;5030042;28;20247;-34
2023/04/14 07:01:37;;;;;;;11.87;5.20;;;6.60;99.90;;;;;;5030391;28;20185;-36
2023/04/14 07:04:03;;;;;;;7.63;2.60;;;6.70;99.90;;;;;;5032452;28;20188;-37
2023/04/14 07:06:30;;;;;;;6.57;2.20;;;6.80;99.90;;;;;;5051088;28;20180;-46
2023/04/14 07:08:56;;;;;;;6.57;2.67;;;6.80;99.90;;;;;;5048735;28;20283;-47
2023/04/14 07:11:21;;;;;;;3.87;2.27;;;6.90;99.90;;;;;;5049944;28;20318;-45
2023/04/14 07:13:47;;;;;;;5.23;2.30;;;7.00;99.90;;;;;;5049797;28;20192;-46
2023/04/14 07:16:13;;;;;;;4.00;1.60;;;7.00;99.90;;;;;;5051055;28;20212;-47
2023/04/14 07:18:39;;;;;;;2.90;1.50;;;7.00;99.90;;;;;;5049811;28;20224;-46
2023/04/14 07:21:04;;;;;;;5.27;1.93;;;7.10;99.90;;;;;;5033006;28;20178;-47
2023/04/14 07:23:32;;;;;;;5.03;2.07;;;7.20;99.90;;;;;;5050757;28;20196;-47
2023/04/14 07:25:59;;;;;;;4.80;2.10;;;7.20;99.90;;;;;;5033126;28;20213;-46
2023/04/14 07:28:26;;;;;;;4.97;2.40;;;7.30;99.90;;;;;;5049447;28;20201;-46
2023/04/14 07:30:53;;;;;;;7.33;1.80;;;7.40;99.90;;;;;;5049646;28;20177;-46
2023/04/14 07:33:21;;;;;;;6.47;1.70;;;7.50;99.90;;;;;;5046368;28;20239;-45
2023/04/14 07:35:53;;;;;;;3.97;1.77;;;7.60;99.90;;;;;;5037416;28;20238;-47
2023/04/14 07:38:19;;;;;;;4.70;1.73;;;7.70;99.90;;;;;;5030303;28;20207;-45
2023/04/14 07:40:45;;;;;;;8.27;2.13;;;7.70;99.90;;;;;;5030968;28;20225;-46
2023/04/14 07:43:11;;;;;;;3.87;1.77;;;7.80;99.90;;;;;;5030904;28;20251;-47
2023/04/14 07:45:38;;;;;;;4.83;1.70;;;7.90;99.90;;;;;;5029479;28;20179;-46
2023/04/14 07:48:04;;;;;;;4.80;2.23;;;8.00;99.90;;;;;;5030703;28;20197;-47
2023/04/14 07:50:30;;;;;;;6.00;1.60;;;8.10;99.90;;;;;;5013194;28;20197;-47
2023/04/14 07:52:56;;;;;;;4.77;1.57;;;8.20;99.90;;;;;;5029227;28;20178;-47
2023/04/14 07:55:21;;;;;;;6.50;1.83;;;8.30;99.90;;;;;;5012848;28;20209;-46
2023/04/14 07:57:47;;;;;;;7.27;2.23;;;8.40;99.90;;;;;;5030375;28;20283;-46
2023/04/14 08:00:14;;;;;;;3.90;1.90;;;8.60;99.90;;;;;;5030943;28;20179;-47
2023/04/14 08:02:40;;;;;;;8.90;2.13;;;8.50;99.90;;;;;;5029392;28;20175;-47
2023/04/14 08:05:06;;;;;;;3.20;1.50;;;8.60;99.90;;;;;;5038412;28;20189;-47
2023/04/14 08:07:32;;;;;;;4.53;1.60;;;8.70;99.90;;;;;;5027424;28;20218;-47
2023/04/14 08:09:58;;;;;;;4.80;1.90;;;8.80;99.90;;;;;;5037644;28;20241;-47
2023/04/14 08:12:24;;;;;;;4.53;1.63;;;9.00;99.90;;;;;;5029342;28;20186;-46
2023/04/14 08:14:51;;;;;;;4.27;1.90;;;9.10;99.90;;;;;;5012663;28;20671;-46
2023/04/14 08:17:17;;;;;;;4.10;1.77;;;9.30;99.90;;;;;;5029057;28;20174;-46
2023/04/14 08:19:43;;;;;;;4.00;1.47;;;9.50;99.90;;;;;;5013610;28;20202;-47
2023/04/14 08:22:09;;;;;;;5.03;2.03;;;9.60;99.90;;;;;;5033041;28;20197;-47
2023/04/14 08:24:35;;;;;;;4.27;1.60;;;9.60;99.90;;;;;;5032838;28;20179;-47
2023/04/14 08:27:01;;;;;;;7.13;1.80;;;9.70;99.90;;;;;;5032986;28;20185;-47
2023/04/14 08:29:27;;;;;;;4.87;1.80;;;9.90;99.90;;;;;;5016357;28;20272;-47
2023/04/14 08:31:53;;;;;;;3.50;1.60;;;10.20;99.90;;;;;;5034306;28;20210;-47
2023/04/14 08:34:19;;;;;;;4.67;2.10;;;10.30;99.90;;;;;;5046379;28;20202;-47
2023/04/14 08:36:46;;;;;;;4.63;2.10;;;10.30;99.90;;;;;;5052896;28;20240;-47
2023/04/14 08:39:12;;;;;;;4.47;1.70;;;10.40;99.90;;;;;;5035836;28;20312;-47
2023/04/14 08:41:38;;;;;;;4.03;1.70;;;10.50;99.90;;;;;;5035977;28;20269;-47
2023/04/14 08:44:05;;;;;;;3.03;1.40;;;10.80;99.90;;;;;;5035984;28;20204;-47
2023/04/14 08:46:32;;;;;;;3.70;1.80;;;11.00;99.90;;;;;;5035695;28;20181;-47
2023/04/14 08:49:05;;;;;;;4.57;1.57;;;11.00;99.90;;;;;;5052121;28;20207;-47
2023/04/14 08:51:37;;;;;;;3.63;1.63;;;11.00;99.90;;;;;;5035578;28;20182;-47
2023/04/14 08:54:07;;;;;;;5.00;1.90;;;11.20;99.90;;;;;;5053761;28;20586;-46
2023/04/14 08:56:41;;;;;;;3.23;1.60;;;11.30;99.90;;;;;;5052135;28;20225;-47
2023/04/14 08:59:10;;;;;;;3.80;1.60;;;11.30;99.90;;;;;;5053530;28;20210;-47
2023/04/14 09:01:38;;;;;;;4.67;1.53;;;11.30;99.90;;;;;;5053243;28;20317;-47
2023/04/14 09:04:05;;;;;;;2.87;1.63;;;11.40;99.90;;;;;;5051904;28;20179;-47
2023/04/14 09:06:33;;;;;;;4.97;1.70;;;11.60;99.90;;;;;;5053259;28;20184;-47
2023/04/14 09:09:04;;;;;;;2.47;1.50;;;11.80;99.90;;;;;;5053142;28;20287;-47
2023/04/14 09:11:30;;;;;;;3.53;1.70;;;11.90;99.90;;;;;;5036688;28;20184;-47
2023/04/14 09:13:57;;;;;;;3.07;1.40;;;12.10;99.90;;;;;;5048146;28;20184;-47
2023/04/14 09:16:25;;;;;;;4.20;1.43;;;12.30;99.90;;;;;;5032150;28;20186;-47
2023/04/14 09:18:52;;;;;;;4.87;1.60;;;12.40;99.90;;;;;;5048688;28;20194;-47
2023/04/14 09:21:18;;;;;;;4.57;1.73;;;12.50;99.90;;;;;;5048679;28;20268;-47
2023/04/14 09:23:45;;;;;;;3.80;1.60;;;12.40;99.90;;;;;;5033266;28;20178;-47
2023/04/14 09:26:12;;;;;;;2.83;1.40;;;12.40;99.90;;;;;;5048444;28;20182;-47
2023/04/14 09:28:39;;;;;;;3.23;1.27;;;12.60;99.90;;;;;;5031426;28;20269;-47
2023/04/14 09:31:05;;;;;;;3.17;1.33;;;12.60;99.90;;;;;;5047581;28;20183;-47
2023/04/14 09:33:31;;;;;;;5.73;1.50;;;12.80;99.90;;;;;;5039036;28;20182;-47
2023/04/14 09:35:57;;;;;;;4.13;1.43;;;13.00;99.90;;;;;;5042941;28;20272;-47
2023/04/14 09:38:39;;;;;;;3.27;1.53;;;13.10;99.90;;;;;;5051390;28;20197;-47
2023/04/14 09:41:05;;;;;;;3.10;1.30;;;13.20;99.90;;;;;;5051131;28;20216;-40
2023/04/14 09:43:31;;;;;;;4.97;1.63;;;13.10;99.90;;;;;;5051552;28;20228;-38
2023/04/14 09:46:04;;;;;;;4.47;1.70;;;13.10;99.90;;;;;;5051720;28;20177;-39
2023/04/14 09:48:30;;;;;;;3.73;1.53;;;13.00;99.90;;;;;;5052431;28;20210;-39
2023/04/14 09:51:08;;;;;;;2.93;1.40;;;13.30;99.90;;;;;;5034433;28;20224;-38
2023/04/14 09:53:36;;;;;;;4.73;1.40;;;13.20;99.90;;;;;;5051083;28;20193;-39
2023/04/14 09:56:11;;;;;;;3.33;1.70;;;13.40;99.90;;;;;;5051393;28;20217;-39
2023/04/14 09:58:39;;;;;;;3.27;1.43;;;13.30;99.90;;;;;;5034416;28;20204;-39
2023/04/14 10:01:19;;;;;;;2.83;1.30;;;13.40;99.90;;;;;;5052469;28;20201;-38
2023/04/14 10:03:48;;;;;;;3.07;1.50;;;13.40;99.90;;;;;;5051085;28;20249;-39
2023/04/14 10:06:17;;;;;;;5.73;1.77;;;13.50;99.90;;;;;;5050364;28;20193;-39
2023/04/14 10:08:48;;;;;;;4.17;1.40;;;13.60;99.90;;;;;;5050557;28;20212;-42
2023/04/14 10:11:28;;;;;;;4.13;1.40;;;13.50;99.90;;;;;;5050994;28;20236;-40
2023/04/14 10:13:55;;;;;;;7.23;1.30;;;13.50;99.90;;;;;;5034218;28;20182;-38
2023/04/14 10:16:21;;;;;;;2.57;1.50;;;13.70;99.90;;;;;;5050357;28;20304;-38
2023/04/14 10:18:47;;;;;;;4.83;1.60;;;13.90;99.90;;;;;;5050623;28;20216;-38
2023/04/14 10:21:15;;;;;;;2.73;1.50;;;13.70;99.90;;;;;;5050818;28;20178;-39
2023/04/14 10:23:41;;;;;;;3.53;1.47;;;13.70;99.90;;;;;;5052333;28;20189;-38
2023/04/14 10:26:08;;;;;;;3.30;1.67;;;13.70;99.90;;;;;;5052046;28;20185;-38
2023/04/14 10:28:36;;;;;;;6.43;1.47;;;13.50;99.90;;;;;;5033733;28;20216;-38
2023/04/14 10:31:07;;;;;;;3.23;1.40;;;13.60;99.90;;;;;;5050516;28;20309;-39
2023/04/14 10:33:36;;;;;;;4.00;1.20;;;13.80;99.90;;;;;;5050304;28;20267;-39
2023/04/14 10:36:03;;;;;;;4.03;1.27;;;14.20;99.90;;;;;;5033594;28;20201;-42
2023/04/14 10:38:45;;;;;;;3.67;1.30;;;14.50;99.90;;;;;;5050152;28;20296;-38
2023/04/14 10:41:12;;;;;;;5.33;1.50;;;14.90;99.90;;;;;;5050456;28;20186;-39
2023/04/14 10:43:39;;;;;;;4.97;1.63;;;15.00;99.90;;;;;;5050085;28;20170;-39
2023/04/14 10:46:06;;;;;;;4.47;1.20;;;15.20;99.90;;;;;;5033755;28;20277;-39
2023/04/14 10:48:33;;;;;;;2.80;1.20;;;15.10;99.90;;;;;;5033103;28;20222;-38
2023/04/14 10:51:02;;;;;;;2.93;1.10;;;15.10;99.90;;;;;;5033731;28;20186;-38
2023/04/14 10:53:54;;;;;;;4.70;1.40;;;14.50;99.90;;;;;;5051373;28;20197;-38
2023/04/14 10:56:21;;;;;;;3.77;1.20;;;14.40;99.90;;;;;;5050084;28;20205;-43
2023/04/14 10:58:55;;;;;;;2.63;1.10;;;14.50;99.90;;;;;;5049601;28;20228;-42
2023/04/14 11:01:23;;;;;;;2.50;1.23;;;14.50;99.90;;;;;;5050175;28;20261;-41
2023/04/14 11:03:49;;;;;;;3.43;1.17;;;14.20;99.90;;;;;;5049971;28;20186;-38
2023/04/14 11:06:47;;;;;;;1.90;1.10;;;13.80;99.90;;;;;;5049821;28;20186;-39
2023/04/14 11:09:25;;;;;;;3.57;1.17;;;13.60;99.90;;;;;;5049923;28;20213;-38
2023/04/14 11:11:52;;;;;;;1.80;1.00;;;13.70;99.90;;;;;;5051537;28;20392;-39
2023/04/14 11:14:25;;;;;;;1.93;1.03;;;13.60;99.90;;;;;;5049698;28;20186;-38
2023/04/14 11:16:51;;;;;;;2.50;0.97;;;13.60;99.90;;;;;;5050005;28;20189;-39
2023/04/14 11:19:16;;;;;;;2.97;1.10;;;13.70;99.90;;;;;;5049397;28;20190;-38
2023/04/14 11:21:49;;;;;;;3.17;1.20;;;13.80;99.90;;;;;;5049821;28;20186;-38
2023/04/14 11:24:16;;;;;;;3.20;1.20;;;13.60;99.90;;;;;;5049821;28;20635;-37
2023/04/14 11:26:43;;;;;;;2.53;1.10;;;13.90;99.90;;;;;;5049819;28;20182;-40
2023/04/14 11:29:09;;;;;;;3.63;1.37;;;14.40;99.90;;;;;;5049401;28;20198;-39
2023/04/14 11:31:35;;;;;;;3.10;1.10;;;14.90;99.90;;;;;;5049746;28;20201;-40
2023/04/14 11:34:07;;;;;;;5.40;1.57;;;15.10;99.90;;;;;;5049523;28;20216;-39
2023/04/14 11:36:38;;;;;;;2.80;1.10;;;15.30;99.90;;;;;;5049867;28;20182;-39
2023/04/14 11:39:08;;;;;;;1.83;1.20;;;15.40;99.90;;;;;;5048942;28;20229;-40
2023/04/14 11:41:33;;;;;;;3.00;1.23;;;15.90;99.90;;;;;;5049914;28;20231;-40
2023/04/14 11:43:59;;;;;;;3.33;1.27;;;16.20;99.90;;;;;;5049626;28;20174;-39
2023/04/14 11:46:26;;;;;;;2.40;1.10;;;16.20;99.90;;;;;;5049584;28;20189;-40
2023/04/14 11:48:55;;;;;;;2.78;1.13;;;16.20;99.90;;;;;;5050261;28;20204;-40
2023/04/14 11:51:28;;;;;;;2.50;1.27;;;16.20;99.90;;;;;;5049849;28;20178;-39
2023/04/14 11:53:58;;;;;;;3.07;1.23;;;16.30;99.90;;;;;;5049578;28;20212;-42
2023/04/14 11:56:26;;;;;;;2.43;1.20;;;16.30;99.90;;;;;;5036522;28;20210;-41
2023/04/14 11:58:59;;;;;;;3.30;1.20;;;16.40;99.90;;;;;;5053226;28;20202;-39
2023/04/14 12:01:25;;;;;;;3.07;1.30;;;16.40;99.90;;;;;;5053589;28;20265;-40
2023/04/14 12:03:52;;;;;;;2.13;1.30;;;16.20;99.90;;;;;;5053386;28;20273;-40
2023/04/14 12:06:18;;;;;;;2.33;1.10;;;16.40;99.90;;;;;;5053283;28;20178;-38
2023/04/14 12:08:49;;;;;;;3.53;1.20;;;16.20;99.90;;;;;;5053973;28;20214;-39
2023/04/14 12:11:16;;;;;;;2.60;1.23;;;16.20;99.90;;;;;;5053451;28;20186;-40
2023/04/14 12:13:43;;;;;;;1.98;1.20;;;16.60;99.90;;;;;;5053144;28;20188;-39
2023/04/14 12:16:13;;;;;;;2.60;0.98;;;16.20;99.90;;;;;;5052804;28;20206;-41
2023/04/14 12:18:40;;;;;;;2.33;1.50;;;16.50;99.90;;;;;;5052988;28;20208;-40
2023/04/14 12:21:06;;;;;;;4.57;1.30;;;16.40;99.90;;;;;;5035835;28;20246;-39
2023/04/14 12:23:40;;;;;;;2.53;1.50;;;16.20;99.90;;;;;;5052629;28;20188;-40
2023/04/14 12:26:12;;;;;;;3.60;1.20;;;16.00;99.90;;;;;;5054270;28;20253;-40
2023/04/14 12:28:40;;;;;;;2.10;1.10;;;15.90;99.90;;;;;;5054012;28;20197;-41
2023/04/14 12:31:06;;;;;;;2.55;1.10;;;15.60;99.90;;;;;;5052918;28;20328;-42
2023/04/14 12:33:33;;;;;;;2.23;1.40;;;15.80;99.90;;;;;;5052682;28;20200;-40
2023/04/14 12:36:02;;;;;;;3.30;1.70;;;16.10;99.90;;;;;;5035631;28;20293;-39
2023/04/14 12:38:28;;;;;;;4.40;1.35;;;16.20;99.90;;;;;;5035829;28;20260;-40
2023/04/14 12:40:55;;;;;;;3.20;1.25;;;16.50;99.90;;;;;;5054140;28;20169;-40
2023/04/14 12:43:35;;;;;;;2.58;1.10;;;16.80;99.90;;;;;;5054401;28;20193;-42
2023/04/14 12:46:02;;;;;;;2.97;1.23;;;16.60;99.90;;;;;;5054075;28;20182;-44
2023/04/14 12:48:38;;;;;;;2.17;1.30;;;16.50;99.90;;;;;;5053573;28;20210;-44
2023/04/14 12:51:12;;;;;;;2.58;1.48;;;16.70;99.90;;;;;;5053645;28;20217;-41
2023/04/14 12:53:38;;;;;;;2.43;1.20;;;16.70;99.90;;;;;;5053882;28;20224;-44
2023/04/14 12:56:13;;;;;;;3.92;1.20;;;16.00;99.90;;;;;;5053679;28;20255;-37
2023/04/14 12:58:40;;;;;;;3.73;1.27;;;15.60;99.90;;;;;;5053916;28;20205;-39